EFSI/SJY METAR and TAF weather

Enter ICAO airport designator
Station Type Date Time Source
EFSI METAR 2019/04/20 15:50 UTC NOAA

EFSI 201550Z AUTO 06002KT CAVOK 15/04 Q1026


Station Type Date Time Source
EFSI Decoded METAR 2019/04/20 15:50 UTC NOAA

Seinajoki-Ilmajok, Finland (EFSI) 62-41-37N 022-49-55E
Apr 20, 2019 - 11:50 AM EDT / 2019.04.20 1550 UTC
Wind: from the ENE (060 degrees) at 2 MPH (2 KT):0
Visibility: greater than 7 mile(s):0
Temperature: 59 F (15 C)
Dew Point: 39 F (4 C)
Relative Humidity: 47%
Pressure (altimeter): 30.30 in. Hg (1026 hPa)
ob: EFSI 201550Z AUTO 06002KT CAVOK 15/04 Q1026
cycle: 16

Station Type Date Time Source
EFSI TAF 2012/03/06 09:42 UTC NOAA

TAF EFSI 060830Z 0609/0621 12003KT CAVOK

Example: see airport list